Douglas, WY

6:07 PM MDT on August 30, 2015 (GMT -0600)
Converse County | | Change Station
CLOSE
Current Station
Airport
Location: Douglas,
Elevation: 4928 ft
Nearby Weather Stations

Elev 4928 ft 42.80 °N, 105.38 °W | Updated 14 minutes ago

Partly Cloudy
Partly Cloudy
87 °F
Feels Like 87 °F
N
12
Wind Variable Wind from West

Today
High -- | Low -- °F
--% Chance of Precip.
Yesterday
High -- | Low -- °F
Precip. -- in
6:23 AM 7:40 PM
Full, 98% visible
Pressure 29.74 in
Visibility 10.0 miles
Clouds Clear
Dew Point 40 °F
Humidity 19%
Rainfall 0.00 in
Snow Depth Not available.
UV 1 out of 12
Pollen 10.40 out of 12
Air Quality Not available.
Flu Activity Not available.
METAR KDGW 302353Z AUTO 28010KT 10SM CLR 31/04 A2992 RMK AO2 SLP071 60000 T03060044 10372 20306 50001
Pressure 29.74 in
Visibility 10.0 miles
Clouds Clear
Dew Point 40 °F
Humidity 19%
Rainfall 0.00 in
Snow Depth Not available.
UV 1 out of 12
Pollen 10.40 out of 12
Air Quality Not available.
Flu Activity Not available.
METAR KDGW 302353Z AUTO 28010KT 10SM CLR 31/04 A2992 RMK AO2 SLP071 60000 T03060044 10372 20306 50001

10-Day Weather Forecast

×

Almanac

Astronomy

Aug. 30, 2015 Rise Set
Actual Time
Civil Twilight
Nautical Twilight
Astronomical Twilight
Moon
Length of Visible Light
Length of Day
Tomorrow will be .
, % of the Moon is Illuminated

Today's Extremes

State Highs State Lows

Community

WunderPhotos

Upload Photos

1,851,099 photos uploaded!

WunderBlogs® & News

Nearby

Air Quality

  Air Quality AQ Index Pollutant
Not available.

Snow Depth

Station Depth Elevation

Earthquake Activity

City Distance Mag. Time & Date
Minimum magnitude displayed is 2.5.

Coastal Water Temperatures

Place Temperature

Stations

Nearby Weather Stations

Station Location Temp. Windchill Dew Point Humidity Wind Precip. Elev Updated Type